createdAt,value
2017-12-04T00:00:54.644Z,99.90
2017-12-04T00:03:20.854Z,99.90
2017-12-04T00:05:47.028Z,99.90
2017-12-04T00:08:13.173Z,99.90
2017-12-04T00:10:39.292Z,99.90
2017-12-04T00:13:05.429Z,99.90
2017-12-04T00:15:31.577Z,99.90
2017-12-04T00:17:57.697Z,99.90
2017-12-04T00:20:23.803Z,99.90
2017-12-04T00:22:49.964Z,99.90
2017-12-04T00:25:16.074Z,99.90
2017-12-04T00:27:42.193Z,99.90
2017-12-04T00:30:09.130Z,99.90
2017-12-04T00:32:35.196Z,99.90
2017-12-04T00:35:01.365Z,99.90
2017-12-04T00:37:27.446Z,99.90
2017-12-04T00:39:53.611Z,99.90
2017-12-04T00:42:19.735Z,99.90
2017-12-04T00:57:05.764Z,99.90
2017-12-04T00:59:31.962Z,99.90
2017-12-04T01:01:58.086Z,99.90
2017-12-04T01:04:24.236Z,99.90
2017-12-04T01:06:50.359Z,99.90
2017-12-04T01:09:16.492Z,99.90
2017-12-04T01:11:42.698Z,99.90
2017-12-04T01:14:08.810Z,99.90
2017-12-04T01:16:34.906Z,99.90
2017-12-04T01:19:02.103Z,99.90
2017-12-04T01:21:28.317Z,99.90
2017-12-04T01:23:54.434Z,99.90
2017-12-04T01:26:22.368Z,99.90
2017-12-04T01:28:48.597Z,99.90
2017-12-04T01:31:15.386Z,99.90
2017-12-04T01:33:41.692Z,99.90
2017-12-04T01:36:07.828Z,99.90
2017-12-04T01:38:33.942Z,99.90
2017-12-04T01:41:01.004Z,99.90
2017-12-04T01:43:27.160Z,99.90
2017-12-04T01:45:53.292Z,99.90
2017-12-04T01:48:19.422Z,99.90
2017-12-04T01:50:45.550Z,99.90
2017-12-04T01:53:11.989Z,99.90
2017-12-04T01:55:38.154Z,99.90
2017-12-04T01:58:04.251Z,99.90
2017-12-04T02:00:30.593Z,99.90
2017-12-04T02:02:57.481Z,99.90
2017-12-04T02:05:23.711Z,99.90
2017-12-04T02:07:50.216Z,99.90
2017-12-04T02:10:16.779Z,99.90
2017-12-04T02:12:43.232Z,99.90
2017-12-04T02:15:09.534Z,99.90
2017-12-04T02:17:35.839Z,99.90
2017-12-04T02:20:02.992Z,99.90
2017-12-04T02:22:29.202Z,99.90
2017-12-04T02:24:55.332Z,99.90
2017-12-04T02:27:21.435Z,99.90
2017-12-04T02:29:47.549Z,99.90
2017-12-04T02:32:13.817Z,99.90
2017-12-04T02:34:40.034Z,99.90
2017-12-04T02:37:06.962Z,99.90
2017-12-04T02:39:33.134Z,99.90
2017-12-04T02:41:59.238Z,99.90
2017-12-04T02:44:25.329Z,99.90
2017-12-04T02:46:51.454Z,99.90
2017-12-04T02:49:17.546Z,99.90
2017-12-04T02:51:43.690Z,99.90
2017-12-04T02:54:09.846Z,99.90
2017-12-04T02:56:35.959Z,99.90
2017-12-04T02:59:02.107Z,99.90
2017-12-04T03:01:28.212Z,99.90
2017-12-04T03:03:54.368Z,99.90
2017-12-04T03:06:20.454Z,99.90
2017-12-04T03:08:46.604Z,99.90
2017-12-04T03:11:12.762Z,99.90
2017-12-04T03:13:38.890Z,99.90
2017-12-04T03:16:05.000Z,99.90
2017-12-04T03:18:31.840Z,99.90
2017-12-04T03:20:58.714Z,99.90
2017-12-04T03:23:24.825Z,99.90
2017-12-04T03:25:50.996Z,99.90
2017-12-04T03:28:17.151Z,99.90
2017-12-04T03:30:43.304Z,99.90
2017-12-04T03:33:09.458Z,99.90
2017-12-04T03:35:36.306Z,99.90
2017-12-04T03:38:02.465Z,99.90
2017-12-04T03:40:28.590Z,99.90
2017-12-04T03:42:55.438Z,99.90
2017-12-04T03:45:22.346Z,99.90
2017-12-04T03:47:48.491Z,99.90
2017-12-04T03:50:14.590Z,99.90
2017-12-04T03:52:40.709Z,99.90
2017-12-04T03:55:07.552Z,99.90
2017-12-04T03:57:33.640Z,99.90
2017-12-04T03:59:59.774Z,99.90
2017-12-04T04:02:25.864Z,99.90
2017-12-04T04:04:51.966Z,99.90
2017-12-04T04:07:18.087Z,99.90
2017-12-04T04:09:44.228Z,99.90
2017-12-04T04:12:10.317Z,99.90
2017-12-04T04:14:36.416Z,99.90
2017-12-04T04:17:02.532Z,99.90
2017-12-04T04:19:28.659Z,99.90
2017-12-04T04:21:54.798Z,99.90
2017-12-04T04:24:20.966Z,99.90
2017-12-04T04:26:47.057Z,99.90
2017-12-04T04:29:13.941Z,99.90
2017-12-04T04:31:40.063Z,99.90
2017-12-04T04:34:06.233Z,99.90
2017-12-04T04:36:32.366Z,99.90
2017-12-04T04:38:58.470Z,99.90
2017-12-04T04:41:25.316Z,99.90
2017-12-04T04:43:51.461Z,99.90
2017-12-04T04:46:17.635Z,99.90
2017-12-04T04:48:43.764Z,99.90
2017-12-04T04:51:09.899Z,99.90
2017-12-04T04:53:36.034Z,99.90
2017-12-04T04:56:02.185Z,99.90
2017-12-04T04:58:28.319Z,99.90
2017-12-04T05:00:54.432Z,99.90
2017-12-04T05:03:21.341Z,99.90
2017-12-04T05:05:47.568Z,99.90
2017-12-04T05:08:13.656Z,99.90
2017-12-04T05:10:39.802Z,99.90
2017-12-04T05:13:06.682Z,99.90
2017-12-04T05:15:32.789Z,99.90
2017-12-04T05:17:58.956Z,99.90
2017-12-04T05:20:25.093Z,99.90
2017-12-04T05:22:51.203Z,99.90
2017-12-04T05:25:18.085Z,99.90
2017-12-04T05:27:44.230Z,99.90
2017-12-04T05:30:10.399Z,99.90
2017-12-04T05:32:36.604Z,99.90
2017-12-04T05:35:02.761Z,99.90
2017-12-04T05:37:28.881Z,99.90
2017-12-04T05:39:55.053Z,99.90
2017-12-04T05:42:21.190Z,99.90
2017-12-04T05:44:47.370Z,99.90
2017-12-04T05:47:13.565Z,99.90
2017-12-04T05:49:39.661Z,99.90
2017-12-04T05:52:06.533Z,99.90
2017-12-04T05:54:32.693Z,99.90
2017-12-04T05:56:58.802Z,99.90
2017-12-04T05:59:25.944Z,99.90
2017-12-04T06:01:52.855Z,99.90
2017-12-04T06:04:18.969Z,99.90
2017-12-04T06:06:45.066Z,99.90
2017-12-04T06:09:11.212Z,99.90
2017-12-04T06:11:38.105Z,99.90
2017-12-04T06:14:04.221Z,99.90
2017-12-04T06:16:31.100Z,99.90
2017-12-04T06:18:57.215Z,99.90
2017-12-04T06:21:23.305Z,99.90
2017-12-04T06:23:49.446Z,99.90
2017-12-04T06:26:15.557Z,99.90
2017-12-04T06:28:41.730Z,99.90
2017-12-04T06:31:07.881Z,99.90
2017-12-04T06:33:34.008Z,99.90
2017-12-04T06:36:00.178Z,99.90
2017-12-04T06:38:27.098Z,99.90
2017-12-04T06:40:53.196Z,99.90
2017-12-04T06:43:20.265Z,99.90
2017-12-04T06:45:46.396Z,99.90
2017-12-04T06:48:12.786Z,99.90
2017-12-04T06:50:38.914Z,99.90
2017-12-04T06:53:05.076Z,99.90
2017-12-04T06:55:31.295Z,99.90
2017-12-04T06:57:57.399Z,99.90
2017-12-04T07:00:23.622Z,99.90
2017-12-04T07:02:49.714Z,99.90
2017-12-04T07:05:15.845Z,99.90
2017-12-04T07:07:41.992Z,99.90
2017-12-04T07:10:08.089Z,99.90
2017-12-04T07:12:34.193Z,99.90
2017-12-04T07:15:00.387Z,99.90
2017-12-04T07:17:26.512Z,99.90
2017-12-04T07:19:52.641Z,99.90
2017-12-04T07:22:18.835Z,99.90
2017-12-04T07:24:44.930Z,99.90
2017-12-04T07:27:11.036Z,99.90
2017-12-04T07:29:37.169Z,99.90
2017-12-04T07:32:03.449Z,99.90
2017-12-04T07:34:29.567Z,99.90
2017-12-04T07:36:55.745Z,99.90
2017-12-04T07:39:21.859Z,99.90
2017-12-04T07:41:47.995Z,99.90
2017-12-04T07:44:15.560Z,99.90
2017-12-04T07:46:41.741Z,99.90
2017-12-04T07:49:07.862Z,99.90
2017-12-04T07:51:34.050Z,99.90
2017-12-04T07:54:01.023Z,99.90
2017-12-04T07:56:27.151Z,99.90
2017-12-04T07:58:54.069Z,99.90
2017-12-04T08:01:20.197Z,99.90
2017-12-04T08:03:46.616Z,99.90
2017-12-04T08:06:12.785Z,99.90
2017-12-04T08:08:38.888Z,99.90
2017-12-04T08:11:05.066Z,99.90
2017-12-04T08:13:31.200Z,99.90
2017-12-04T08:15:57.397Z,99.90
2017-12-04T08:18:23.489Z,99.90
2017-12-04T08:20:49.647Z,99.80
2017-12-04T08:23:15.774Z,98.50
2017-12-04T08:25:41.893Z,97.80
2017-12-04T08:28:08.022Z,98.40
2017-12-04T08:30:34.179Z,98.10
2017-12-04T08:33:00.378Z,96.40
2017-12-04T08:35:26.537Z,97.00
2017-12-04T08:37:52.718Z,96.80
2017-12-04T08:40:18.886Z,96.40
2017-12-04T08:42:45.015Z,96.20
2017-12-04T08:45:11.945Z,94.90
2017-12-04T08:47:38.057Z,95.60
2017-12-04T08:50:04.217Z,96.30
2017-12-04T08:52:30.373Z,95.20
2017-12-04T08:54:57.212Z,94.40
2017-12-04T08:57:23.435Z,93.50
2017-12-04T08:59:49.645Z,93.80
2017-12-04T09:02:15.749Z,93.70
2017-12-04T09:04:42.617Z,92.60
2017-12-04T09:07:08.734Z,92.40
2017-12-04T09:09:35.661Z,92.80
2017-12-04T09:12:01.800Z,92.30
2017-12-04T09:14:27.936Z,92.20
2017-12-04T09:16:54.093Z,92.90
2017-12-04T09:19:20.248Z,92.30
2017-12-04T09:21:46.356Z,92.70
2017-12-04T09:24:12.465Z,91.50
2017-12-04T09:26:38.608Z,91.70
2017-12-04T09:29:04.750Z,91.90
2017-12-04T09:31:31.756Z,88.10
